General Pico, Argentina
Current Conditions -  °F | °C
As of 12:00 PM on Thursday 29 Jan 2015 (Local Time) from SAOC Reporting Station
Scattered Clouds Scattered Clouds  
Wind Chill: 72°   Ceiling: Unl
Heat Index: 72°   Visibility: 6mi
Dew Point: 61°   Wind: 15mph
Humidity: 69%   Direction: 50°NE
Pressure: 30.12"   Gusts: NA
Location:  35.67°S, 63.73°W
Report Text: SAOC 291500Z 05013KT 9999 SCT020 SCT02522/16 Q1020
Loading
Personal Weather Stations






























Interactive Weather Map New forecast layout! Learn more

10-Day Weather Forecast

Advertisements
Track Severe Weather on mobile